Time;durP1;ratioP1;P1;durP2;ratioP2;P2;SDS_P1;SDS_P2;PMS_P1;PMS_P2;Temp;Humidity;BMP_temperature;BMP_pressure;BME280_temperature;BME280_humidity;BME280_pressure;Samples;Min_cycle;Max_cycle;Signal;HPM_P1;HPM_P2
2023/06/27 00:00:11;;;;;;;11.13;10.03;;;13.60;61.30;;;;;;5114621;28;20479;-71
2023/06/27 00:02:38;;;;;;;20.53;19.07;;;13.60;60.40;;;;;;5114686;28;20452;-71
2023/06/27 00:05:06;;;;;;;20.83;19.53;;;13.50;64.10;;;;;;5114420;28;20795;-70
2023/06/27 00:07:33;;;;;;;25.90;24.30;;;13.50;63.60;;;;;;5114887;28;20532;-71
2023/06/27 00:10:00;;;;;;;22.77;21.37;;;13.50;64.20;;;;;;5114735;28;20475;-70
2023/06/27 00:12:30;;;;;;;17.40;16.00;;;13.40;64.00;;;;;;5114587;28;20449;-71
2023/06/27 00:14:57;;;;;;;35.43;33.63;;;13.40;64.00;;;;;;5114039;28;20453;-71
2023/06/27 00:17:24;;;;;;;43.00;41.00;;;13.40;64.10;;;;;;5114065;28;20959;-71
2023/06/27 00:19:57;;;;;;;60.97;58.17;;;13.40;64.10;;;;;;5107557;28;20708;-71
2023/06/27 00:22:26;;;;;;;62.03;59.30;;;13.40;64.10;;;;;;5101906;28;20523;-71
2023/06/27 00:24:53;;;;;;;75.63;72.77;;;13.50;64.20;;;;;;5105142;28;20524;-71
2023/06/27 00:27:20;;;;;;;71.23;68.53;;;13.50;66.30;;;;;;5107851;28;20457;-71
2023/06/27 00:29:48;;;;;;;76.43;73.43;;;13.50;66.40;;;;;;5105323;28;20452;-71
2023/06/27 00:32:15;;;;;;;70.43;67.73;;;13.50;66.80;;;;;;5114387;28;20452;-71
2023/06/27 00:34:42;;;;;;;65.70;63.20;;;13.50;67.10;;;;;;5108236;28;20463;-71
2023/06/27 00:37:09;;;;;;;60.67;58.07;;;13.60;67.10;;;;;;5107560;28;20449;-71
2023/06/27 00:39:36;;;;;;;51.63;49.23;;;13.50;66.80;;;;;;5113698;28;20478;-70
2023/06/27 00:42:03;;;;;;;61.60;59.00;;;13.50;66.80;;;;;;5113972;28;20485;-71
2023/06/27 00:44:30;;;;;;;85.30;82.10;;;13.50;67.30;;;;;;5113477;28;20495;-71
2023/06/27 00:46:59;;;;;;;72.33;69.50;;;13.50;68.90;;;;;;5114111;28;20546;-71
2023/06/27 00:49:26;;;;;;;48.87;46.83;;;13.60;69.00;;;;;;5113813;28;20860;-71
2023/06/27 00:51:54;;;;;;;91.87;88.53;;;13.50;68.20;;;;;;5113835;28;20451;-71
2023/06/27 00:54:23;;;;;;;65.50;62.80;;;13.50;70.80;;;;;;5113221;28;20462;-71
2023/06/27 00:56:53;;;;;;;61.03;58.50;;;13.60;70.50;;;;;;5113753;28;20880;-71
2023/06/27 00:59:20;;;;;;;48.13;45.97;;;13.60;70.20;;;;;;5112708;28;20480;-71
2023/06/27 01:01:48;;;;;;;51.60;49.40;;;13.60;69.20;;;;;;5113767;28;20451;-71
2023/06/27 01:04:16;;;;;;;46.37;44.00;;;13.60;70.40;;;;;;5113100;28;20462;-71
2023/06/27 01:06:52;;;;;;;47.63;45.53;;;13.60;69.90;;;;;;5113505;28;20460;-73
2023/06/27 01:09:25;;;;;;;69.53;66.73;;;13.60;70.10;;;;;;5113249;28;20862;-71
2023/06/27 01:11:58;;;;;;;81.23;78.03;;;13.60;70.10;;;;;;5113610;28;20518;-74
2023/06/27 01:14:27;;;;;;;70.80;68.10;;;13.60;70.70;;;;;;5112924;28;20468;-71
2023/06/27 01:16:54;;;;;;;70.37;67.50;;;13.60;71.70;;;;;;5113620;28;20466;-71
2023/06/27 01:19:26;;;;;;;87.10;83.60;;;13.60;71.80;;;;;;5112971;28;20496;-71
2023/06/27 01:21:59;;;;;;;115.20;110.87;;;13.60;72.30;;;;;;5113275;28;20544;-71
2023/06/27 01:24:28;;;;;;;123.10;118.67;;;13.60;72.30;;;;;;5111887;28;20540;-71
2023/06/27 01:26:55;;;;;;;141.07;135.80;;;13.60;72.40;;;;;;5113267;28;20448;-71
2023/06/27 01:29:22;;;;;;;140.70;135.37;;;13.50;72.90;;;;;;5112837;28;20810;-71
2023/06/27 01:31:53;;;;;;;142.00;136.50;;;13.60;74.10;;;;;;5113107;28;20459;-71
2023/06/27 01:34:26;;;;;;;114.53;110.23;;;13.60;74.90;;;;;;5112361;28;20449;-71
2023/06/27 01:36:59;;;;;;;108.07;104.07;;;13.60;74.70;;;;;;5090345;28;20457;-71
2023/06/27 01:39:30;;;;;;;99.40;95.27;;;13.60;74.50;;;;;;5104258;28;20471;-71
2023/06/27 01:42:03;;;;;;;128.37;123.23;;;13.70;72.40;;;;;;5105162;28;20464;-71
2023/06/27 01:44:32;;;;;;;107.23;103.13;;;13.60;73.80;;;;;;5108794;28;20441;-71
2023/06/27 01:46:59;;;;;;;70.23;67.37;;;13.60;74.40;;;;;;5112826;28;20452;-71
2023/06/27 01:49:26;;;;;;;37.30;35.40;;;13.70;72.40;;;;;;5112554;28;20876;-71
2023/06/27 01:51:56;;;;;;;30.37;28.10;;;13.90;70.70;;;;;;5112978;28;20815;-71
2023/06/27 01:54:23;;;;;;;17.43;15.90;;;13.90;68.80;;;;;;5106134;28;20449;-71
2023/06/27 01:56:51;;;;;;;18.70;17.23;;;14.00;68.20;;;;;;5104120;28;20459;-71
2023/06/27 01:59:18;;;;;;;18.93;16.90;;;14.00;68.10;;;;;;5112998;28;20947;-71
2023/06/27 02:01:44;;;;;;;16.77;15.23;;;14.10;68.30;;;;;;5113185;28;20456;-71
2023/06/27 02:04:11;;;;;;;21.83;20.17;;;14.00;68.40;;;;;;5112516;28;20456;-71
2023/06/27 02:06:38;;;;;;;21.30;19.80;;;13.90;68.80;;;;;;5112825;28;20455;-71
2023/06/27 02:09:05;;;;;;;23.77;21.27;;;13.90;69.20;;;;;;5112534;28;20932;-71
2023/06/27 02:11:32;;;;;;;28.03;26.43;;;13.80;69.40;;;;;;5114999;28;20954;-70
2023/06/27 02:14:00;;;;;;;28.17;26.40;;;13.80;70.10;;;;;;5116238;28;20951;-70
2023/06/27 02:16:27;;;;;;;34.43;32.40;;;13.70;70.60;;;;;;5116670;28;20449;-71
2023/06/27 02:18:53;;;;;;;42.47;40.00;;;13.70;70.60;;;;;;5116735;28;20462;-70
2023/06/27 02:21:20;;;;;;;49.47;46.60;;;13.60;72.20;;;;;;5116560;28;20475;-71
2023/06/27 02:23:47;;;;;;;47.07;44.80;;;13.60;72.00;;;;;;5116728;28;20460;-70
2023/06/27 02:26:14;;;;;;;52.93;49.30;;;13.60;72.20;;;;;;5116195;28;20452;-70
2023/06/27 02:28:41;;;;;;;52.10;49.60;;;13.60;72.30;;;;;;5116452;28;20452;-70
2023/06/27 02:31:09;;;;;;;64.10;61.10;;;13.50;72.20;;;;;;5116549;28;20457;-71
2023/06/27 02:33:35;;;;;;;64.60;62.00;;;13.60;72.30;;;;;;5116323;28;20449;-71
2023/06/27 02:36:03;;;;;;;80.27;77.00;;;13.50;72.20;;;;;;5116029;28;20479;-71
2023/06/27 02:38:30;;;;;;;55.67;53.17;;;13.50;72.20;;;;;;5116467;28;20459;-71
2023/06/27 02:40:56;;;;;;;57.97;55.57;;;13.40;72.10;;;;;;5116132;28;20548;-71
2023/06/27 02:43:23;;;;;;;44.50;42.37;;;13.50;72.20;;;;;;5104831;28;20473;-71
2023/06/27 02:45:50;;;;;;;50.53;47.93;;;13.40;72.10;;;;;;5114813;28;20928;-71
2023/06/27 02:48:18;;;;;;;50.93;48.10;;;13.40;72.10;;;;;;5116328;28;20448;-71
2023/06/27 02:50:49;;;;;;;51.40;49.00;;;13.40;72.10;;;;;;5116160;28;20814;-71
2023/06/27 02:53:16;;;;;;;47.07;44.20;;;13.50;72.20;;;;;;5116122;28;20449;-71
2023/06/27 02:55:42;;;;;;;42.07;40.13;;;13.50;71.10;;;;;;5115773;28;20984;-71
2023/06/27 02:58:09;;;;;;;49.00;46.77;;;13.60;71.10;;;;;;5115849;28;20559;-71
2023/06/27 03:00:36;;;;;;;32.00;30.30;;;13.60;70.50;;;;;;5115875;28;20477;-71
2023/06/27 03:03:03;;;;;;;27.57;25.83;;;13.70;70.00;;;;;;5116061;28;20459;-71
2023/06/27 03:05:31;;;;;;;27.73;26.00;;;13.70;68.70;;;;;;5115532;28;20457;-71
2023/06/27 03:07:58;;;;;;;18.50;16.93;;;13.70;68.70;;;;;;5115843;28;20456;-71
2023/06/27 03:10:25;;;;;;;14.20;13.00;;;13.80;68.30;;;;;;5115495;28;20538;-71
2023/06/27 03:12:52;;;;;;;13.27;11.80;;;13.90;67.60;;;;;;5115827;28;20471;-71
2023/06/27 03:15:19;;;;;;;14.10;9.63;;;14.00;66.30;;;;;;5115207;28;20455;-71
2023/06/27 03:17:46;;;;;;;10.40;9.40;;;14.10;64.80;;;;;;5115892;28;20453;-71
2023/06/27 03:20:13;;;;;;;8.93;8.00;;;14.10;66.00;;;;;;5115421;27;20479;-71
2023/06/27 03:22:41;;;;;;;9.57;7.70;;;14.10;65.40;;;;;;5114672;28;20540;-71
2023/06/27 03:25:10;;;;;;;9.07;6.50;;;14.20;64.80;;;;;;5114972;28;20449;-71
2023/06/27 03:27:37;;;;;;;7.43;5.60;;;14.20;64.80;;;;;;5115558;28;20539;-71
2023/06/27 03:30:04;;;;;;;9.70;6.37;;;14.20;64.80;;;;;;5115480;28;20454;-71
2023/06/27 03:32:31;;;;;;;9.63;6.23;;;14.20;64.80;;;;;;5115453;28;20944;-71
2023/06/27 03:34:58;;;;;;;11.20;7.97;;;14.30;64.90;;;;;;5114773;28;20456;-71
2023/06/27 03:37:24;;;;;;;11.57;8.63;;;14.30;64.90;;;;;;5115568;27;20460;-71
2023/06/27 03:39:52;;;;;;;8.03;6.50;;;14.30;64.90;;;;;;5115052;28;20449;-71
2023/06/27 03:42:19;;;;;;;7.57;6.30;;;14.40;65.00;;;;;;5115298;28;20462;-71
2023/06/27 03:44:46;;;;;;;9.50;6.50;;;14.20;64.80;;;;;;5114892;28;20448;-71
2023/06/27 03:47:13;;;;;;;11.17;6.70;;;14.20;65.60;;;;;;5115083;28;20599;-71
2023/06/27 03:49:40;;;;;;;10.33;8.90;;;14.20;64.80;;;;;;5114898;28;20544;-71
2023/06/27 03:52:07;;;;;;;10.50;9.47;;;14.10;65.10;;;;;;5115140;28;20449;-71
2023/06/27 03:54:34;;;;;;;17.23;10.03;;;14.10;66.10;;;;;;5114662;28;20453;-71
2023/06/27 03:57:02;;;;;;;13.07;12.00;;;14.20;64.90;;;;;;5115033;28;20456;-71
2023/06/27 03:59:29;;;;;;;10.30;9.30;;;14.20;65.50;;;;;;5114944;28;20875;-71
2023/06/27 04:01:56;;;;;;;13.73;11.03;;;14.20;64.80;;;;;;5114712;28;20483;-71
2023/06/27 04:04:23;;;;;;;12.03;10.60;;;14.20;64.80;;;;;;5114285;28;20543;-71
2023/06/27 04:06:49;;;;;;;17.07;15.77;;;14.20;64.80;;;;;;5114582;28;20457;-71
2023/06/27 04:09:16;;;;;;;23.20;21.27;;;14.30;65.60;;;;;;5114877;28;20792;-71
2023/06/27 04:11:43;;;;;;;15.40;13.97;;;14.30;67.10;;;;;;5097377;28;20442;-71
2023/06/27 04:14:11;;;;;;;21.43;19.67;;;14.30;67.10;;;;;;5093480;28;20450;-71
2023/06/27 04:16:38;;;;;;;16.43;14.73;;;14.30;67.90;;;;;;5094388;28;20456;-71
2023/06/27 04:19:05;;;;;;;17.83;16.23;;;14.40;66.90;;;;;;5093707;28;20457;-71
2023/06/27 04:21:31;;;;;;;20.33;18.43;;;14.50;66.40;;;;;;5094190;28;20839;-71
2023/06/27 04:23:59;;;;;;;14.60;13.27;;;14.50;66.30;;;;;;5093756;28;20544;-71
2023/06/27 04:26:26;;;;;;;11.47;10.37;;;14.60;65.50;;;;;;5093971;28;20493;-71
2023/06/27 04:28:53;;;;;;;18.83;11.33;;;14.60;65.20;;;;;;5093809;28;20446;-71
2023/06/27 04:31:22;;;;;;;16.37;9.60;;;14.60;65.20;;;;;;5093890;28;20446;-71
2023/06/27 04:33:49;;;;;;;13.20;11.80;;;14.60;65.20;;;;;;5093532;28;20566;-71
2023/06/27 04:36:20;;;;;;;12.90;11.00;;;14.60;65.90;;;;;;5093317;28;20461;-71
2023/06/27 04:38:48;;;;;;;11.20;10.20;;;14.60;66.60;;;;;;5093811;28;20960;-71
2023/06/27 04:41:15;;;;;;;13.00;11.73;;;14.60;67.00;;;;;;5093644;28;20552;-71
2023/06/27 04:43:41;;;;;;;16.47;14.97;;;14.50;67.10;;;;;;5093565;28;20449;-71
2023/06/27 04:46:08;;;;;;;15.80;14.30;;;14.60;68.00;;;;;;5093091;28;20449;-71
2023/06/27 04:48:36;;;;;;;19.17;14.90;;;14.60;67.40;;;;;;5093302;28;20771;-71
2023/06/27 04:51:04;;;;;;;14.77;12.70;;;14.50;67.70;;;;;;5093508;28;20446;-71
2023/06/27 04:53:32;;;;;;;18.67;13.27;;;14.50;68.10;;;;;;5093472;28;20458;-71
2023/06/27 04:55:59;;;;;;;15.67;14.37;;;14.50;68.30;;;;;;5092969;28;20507;-71
2023/06/27 04:58:25;;;;;;;20.77;18.87;;;14.50;68.50;;;;;;5093301;28;20463;-71
2023/06/27 05:00:52;;;;;;;20.10;18.40;;;14.50;69.10;;;;;;5092947;28;20482;-71
2023/06/27 05:03:20;;;;;;;13.83;12.57;;;14.50;68.60;;;;;;5093096;28;20450;-71
2023/06/27 05:05:49;;;;;;;16.43;14.83;;;14.60;68.30;;;;;;5093114;28;20460;-71
2023/06/27 05:08:16;;;;;;;14.90;13.43;;;14.60;68.00;;;;;;5093185;28;20980;-71
2023/06/27 05:10:43;;;;;;;19.53;17.83;;;14.70;68.00;;;;;;5093014;28;20571;-71
2023/06/27 05:13:10;;;;;;;16.37;12.13;;;14.70;67.50;;;;;;5093179;28;20449;-71
2023/06/27 05:15:36;;;;;;;20.53;13.17;;;14.80;67.00;;;;;;5092460;28;20460;-71
2023/06/27 05:18:33;;;;;;;12.33;9.90;;;14.90;66.60;;;;;;5093273;28;20450;-71
2023/06/27 05:21:02;;;;;;;13.00;8.23;;;15.00;67.20;;;;;;5029991;28;20468;-71
2023/06/27 05:23:28;;;;;;;11.77;5.07;;;15.20;65.70;;;;;;5078640;28;20477;-71
2023/06/27 05:25:55;;;;;;;11.00;3.40;;;15.40;65.90;;;;;;5092285;28;20456;-71
2023/06/27 05:28:22;;;;;;;13.13;4.60;;;15.80;66.30;;;;;;5092994;28;20479;-71
2023/06/27 05:30:49;;;;;;;14.80;3.20;;;16.40;61.50;;;;;;5092725;28;20446;-71
2023/06/27 05:33:15;;;;;;;11.07;4.00;;;16.70;58.80;;;;;;5092673;28;20454;-71
2023/06/27 05:35:42;;;;;;;12.10;3.60;;;17.20;57.70;;;;;;5092132;28;20552;-71
2023/06/27 05:38:10;;;;;;;13.00;3.50;;;17.60;55.40;;;;;;5092808;28;20534;-71
2023/06/27 05:40:37;;;;;;;12.70;3.07;;;18.00;51.30;;;;;;5092290;28;20461;-71
2023/06/27 05:43:04;;;;;;;11.70;2.90;;;18.20;51.50;;;;;;5092975;28;20811;-71
2023/06/27 05:45:31;;;;;;;15.40;3.80;;;18.20;51.50;;;;;;5091803;28;20821;-71
2023/06/27 05:47:58;;;;;;;14.67;3.43;;;18.60;47.90;;;;;;5092723;28;20457;-71
2023/06/27 05:50:24;;;;;;;11.33;2.90;;;18.80;47.00;;;;;;5092403;28;20461;-71
2023/06/27 05:52:51;;;;;;;16.33;4.00;;;19.10;48.00;;;;;;5092486;28;20454;-71
2023/06/27 05:55:19;;;;;;;8.23;3.10;;;19.30;44.70;;;;;;5092179;28;20481;-71
2023/06/27 05:57:46;;;;;;;12.83;3.17;;;19.60;43.90;;;;;;5092652;28;21008;-71
2023/06/27 06:00:14;;;;;;;8.97;2.50;;;19.70;44.10;;;;;;5092510;28;20456;-71
2023/06/27 06:02:43;;;;;;;10.07;2.40;;;19.80;44.00;;;;;;5092305;28;20484;-72
2023/06/27 06:05:11;;;;;;;11.10;2.93;;;19.90;40.30;;;;;;5092083;28;20449;-71
2023/06/27 06:07:42;;;;;;;10.80;3.20;;;20.10;37.20;;;;;;5092185;28;20794;-71
2023/06/27 06:10:09;;;;;;;9.13;2.97;;;20.10;35.40;;;;;;5092352;28;20461;-73
2023/06/27 06:12:38;;;;;;;17.30;3.60;;;20.50;35.80;;;;;;5092684;28;20450;-73
2023/06/27 06:15:06;;;;;;;14.17;2.67;;;20.90;36.10;;;;;;5090384;28;20449;-72
2023/06/27 06:17:33;;;;;;;14.00;3.00;;;20.80;34.90;;;;;;5093578;28;20449;-73
2023/06/27 06:20:00;;;;;;;10.80;3.03;;;20.80;32.70;;;;;;5098828;28;20457;-72
2023/06/27 06:22:26;;;;;;;10.00;3.17;;;20.80;34.40;;;;;;5090112;28;20483;-71
2023/06/27 06:24:53;;;;;;;8.27;2.80;;;20.70;32.70;;;;;;5097606;28;20817;-71
2023/06/27 06:27:20;;;;;;;12.60;2.87;;;20.90;34.30;;;;;;5086214;28;21067;-71
2023/06/27 06:29:48;;;;;;;11.70;3.40;;;20.80;33.10;;;;;;5096292;28;20488;-70
2023/06/27 06:32:15;;;;;;;10.30;2.80;;;20.80;32.70;;;;;;5097025;28;20446;-69
2023/06/27 06:34:42;;;;;;;13.83;3.00;;;21.20;36.40;;;;;;5098281;28;20454;-70
2023/06/27 06:37:09;;;;;;;11.30;3.80;;;21.10;34.00;;;;;;5090766;28;20941;-69
2023/06/27 06:39:36;;;;;;;12.80;2.90;;;21.10;33.40;;;;;;5090979;28;20492;-70
2023/06/27 06:42:03;;;;;;;20.20;3.87;;;20.90;32.50;;;;;;5091022;28;20530;-70
2023/06/27 06:44:30;;;;;;;14.37;3.73;;;21.00;32.70;;;;;;5090418;28;20460;-70
2023/06/27 06:46:58;;;;;;;17.23;3.30;;;20.80;33.00;;;;;;5081767;28;20469;-70
2023/06/27 06:49:25;;;;;;;11.23;2.87;;;21.00;32.70;;;;;;5070461;28;20462;-70
2023/06/27 06:51:52;;;;;;;15.93;3.87;;;21.30;32.80;;;;;;5070644;28;20822;-70
2023/06/27 06:54:18;;;;;;;14.87;2.70;;;21.40;31.40;;;;;;5070266;28;20462;-70
2023/06/27 06:56:45;;;;;;;17.67;4.97;;;21.40;32.30;;;;;;5070766;28;20830;-70
2023/06/27 06:59:12;;;;;;;12.43;3.30;;;21.60;30.90;;;;;;5089744;28;20449;-70
2023/06/27 07:01:39;;;;;;;16.57;3.50;;;21.70;30.80;;;;;;5097254;28;20476;-69
2023/06/27 07:04:07;;;;;;;17.23;3.47;;;21.80;28.30;;;;;;5098520;28;20466;-72
2023/06/27 07:06:35;;;;;;;16.07;2.87;;;21.90;28.90;;;;;;5107005;28;20449;-70
2023/06/27 07:09:02;;;;;;;12.43;3.03;;;22.20;28.60;;;;;;5093330;28;20447;-71
2023/06/27 07:11:29;;;;;;;11.00;3.00;;;21.90;28.40;;;;;;5105684;28;20449;-70
2023/06/27 07:13:59;;;;;;;13.40;4.20;;;21.90;28.40;;;;;;5107502;28;20452;-70
2023/06/27 07:16:27;;;;;;;12.40;3.30;;;22.00;28.50;;;;;;5094999;28;20512;-72
2023/06/27 07:18:53;;;;;;;14.00;3.57;;;22.00;29.80;;;;;;5104540;28;20245;-73
2023/06/27 07:21:22;;;;;;;13.67;3.70;;;22.50;28.90;;;;;;5108545;28;21112;-72
2023/06/27 07:23:49;;;;;;;16.60;3.70;;;22.40;27.90;;;;;;5115405;28;20460;-72
2023/06/27 07:26:15;;;;;;;13.83;3.90;;;22.50;28.80;;;;;;5114945;28;20944;-72
2023/06/27 07:28:42;;;;;;;7.27;2.73;;;21.80;30.00;;;;;;5115403;28;20452;-73
2023/06/27 07:31:09;;;;;;;11.13;3.30;;;22.20;28.60;;;;;;5115495;28;20823;-72
2023/06/27 07:33:36;;;;;;;13.60;3.50;;;22.20;28.60;;;;;;5115258;28;20453;-72
2023/06/27 07:36:03;;;;;;;13.13;3.30;;;22.50;27.00;;;;;;5113703;28;20457;-72
2023/06/27 07:38:32;;;;;;;12.70;3.50;;;22.50;26.90;;;;;;5115374;28;20958;-72
2023/06/27 07:40:59;;;;;;;9.87;3.50;;;22.60;25.30;;;;;;5115673;28;20472;-72
2023/06/27 07:43:25;;;;;;;9.40;3.47;;;22.60;25.90;;;;;;5115159;27;20668;-73
2023/06/27 07:45:52;;;;;;;13.60;3.53;;;22.80;23.90;;;;;;5114622;28;20459;-72
2023/06/27 07:48:19;;;;;;;11.73;2.97;;;23.20;24.10;;;;;;5115180;28;20940;-72
2023/06/27 07:50:46;;;;;;;12.07;3.50;;;23.10;26.80;;;;;;5114999;28;20448;-72
2023/06/27 07:53:13;;;;;;;14.07;4.03;;;23.50;25.80;;;;;;5115091;28;20444;-71
2023/06/27 07:55:41;;;;;;;16.20;3.40;;;23.10;24.40;;;;;;5114474;27;21037;-71
2023/06/27 07:58:09;;;;;;;11.20;2.40;;;23.30;24.30;;;;;;5115181;28;20456;-72
2023/06/27 08:00:36;;;;;;;10.97;3.40;;;23.30;24.20;;;;;;5114609;28;20479;-72
2023/06/27 08:03:03;;;;;;;11.93;3.30;;;23.00;24.50;;;;;;5114873;28;20473;-72
2023/06/27 08:05:34;;;;;;;14.13;2.77;;;23.30;23.20;;;;;;5114370;28;20455;-72
2023/06/27 08:08:01;;;;;;;9.70;3.00;;;23.60;22.30;;;;;;5114711;28;20448;-72
2023/06/27 08:10:28;;;;;;;17.40;3.53;;;23.70;22.40;;;;;;5114374;28;20449;-71
2023/06/27 08:12:56;;;;;;;11.63;3.20;;;23.60;22.40;;;;;;5114502;28;20485;-72
2023/06/27 08:15:23;;;;;;;7.80;3.00;;;23.50;22.20;;;;;;5114395;27;20453;-71
2023/06/27 08:17:50;;;;;;;10.17;2.47;;;22.70;21.60;;;;;;5114761;28;20453;-71
2023/06/27 08:20:16;;;;;;;13.27;3.33;;;23.00;21.90;;;;;;5114444;28;20455;-72
2023/06/27 08:22:44;;;;;;;8.40;2.80;;;23.20;22.00;;;;;;5114384;28;20480;-72
2023/06/27 08:25:11;;;;;;;9.17;2.20;;;23.40;21.20;;;;;;5113927;28;20937;-72
2023/06/27 08:27:38;;;;;;;9.73;2.37;;;23.50;19.50;;;;;;5114214;28;20539;-72
2023/06/27 08:30:08;;;;;;;10.03;2.10;;;23.60;18.60;;;;;;5114406;27;20810;-72
2023/06/27 08:32:35;;;;;;;16.93;3.67;;;23.80;17.90;;;;;;5114417;28;20444;-71
2023/06/27 08:35:05;;;;;;;9.43;3.03;;;23.80;18.40;;;;;;5113637;28;20853;-72
2023/06/27 08:37:32;;;;;;;13.90;2.80;;;24.10;16.50;;;;;;5114289;28;20870;-71
2023/06/27 08:39:59;;;;;;;10.57;2.83;;;23.90;15.00;;;;;;5113897;28;20448;-72
2023/06/27 08:42:27;;;;;;;8.63;2.60;;;24.00;15.10;;;;;;5114258;28;20584;-71
2023/06/27 08:44:54;;;;;;;11.40;2.47;;;24.20;15.20;;;;;;5113672;28;20505;-71
2023/06/27 08:47:26;;;;;;;11.07;3.40;;;24.10;15.20;;;;;;5113938;28;20955;-71
2023/06/27 08:50:01;;;;;;;10.20;2.23;;;24.00;15.10;;;;;;5113896;28;20928;-71
2023/06/27 08:52:29;;;;;;;7.30;2.10;;;24.50;15.70;;;;;;5113788;28;20449;-71
2023/06/27 08:54:57;;;;;;;12.77;3.10;;;24.60;10.10;;;;;;5113598;28;20453;-71
2023/06/27 08:57:30;;;;;;;7.10;2.03;;;24.30;12.20;;;;;;5114211;28;20449;-72
2023/06/27 09:00:00;;;;;;;11.87;2.83;;;24.00;11.00;;;;;;5113782;28;20459;-71
2023/06/27 09:02:28;;;;;;;10.13;2.60;;;23.70;14.10;;;;;;5113587;28;20480;-71
2023/06/27 09:04:55;;;;;;;10.20;2.47;;;23.80;12.80;;;;;;5112939;28;20489;-72
2023/06/27 09:07:24;;;;;;;9.40;2.60;;;24.40;12.60;;;;;;5113816;28;20457;-72
2023/06/27 09:09:52;;;;;;;7.30;2.40;;;24.80;15.60;;;;;;5113491;28;20453;-71
2023/06/27 09:12:19;;;;;;;9.47;2.50;;;24.30;11.30;;;;;;5113575;28;20452;-71
2023/06/27 09:14:46;;;;;;;11.23;2.50;;;23.80;15.00;;;;;;5113004;28;20818;-71
2023/06/27 09:17:12;;;;;;;11.07;3.37;;;23.70;14.90;;;;;;5113578;28;20449;-72
2023/06/27 09:19:41;;;;;;;13.57;2.83;;;24.20;15.20;;;;;;5112905;27;20449;-71
2023/06/27 09:22:07;;;;;;;20.27;2.47;;;24.70;11.30;;;;;;5112850;28;20469;-71
2023/06/27 09:24:40;;;;;;;13.80;2.47;;;25.40;8.30;;;;;;5113013;28;20539;-72
2023/06/27 09:27:07;;;;;;;8.00;2.17;;;25.10;10.90;;;;;;5113197;28;20544;-72
2023/06/27 09:29:34;;;;;;;6.77;2.30;;;25.00;8.90;;;;;;5113014;28;20464;-72
2023/06/27 09:32:06;;;;;;;15.70;2.70;;;25.00;8.80;;;;;;5113113;28;20471;-72
2023/06/27 09:34:34;;;;;;;11.83;3.00;;;24.40;7.70;;;;;;5112975;28;20464;-71
2023/06/27 09:37:03;;;;;;;14.87;2.50;;;24.00;7.30;;;;;;5113090;28;20766;-71
2023/06/27 09:39:30;;;;;;;11.13;3.10;;;24.00;11.10;;;;;;5113117;28;20831;-71
2023/06/27 09:41:59;;;;;;;10.13;2.40;;;23.90;9.40;;;;;;5113240;28;20461;-71
2023/06/27 09:44:26;;;;;;;9.37;2.10;;;24.00;11.30;;;;;;5112710;28;20453;-71
2023/06/27 09:46:53;;;;;;;10.80;2.90;;;24.00;7.80;;;;;;5112827;28;20537;-72
2023/06/27 09:49:21;;;;;;;9.10;2.47;;;23.90;8.50;;;;;;5112848;28;20670;-72
2023/06/27 09:51:49;;;;;;;10.10;2.70;;;23.90;7.40;;;;;;5112968;28;20455;-71
2023/06/27 09:54:19;;;;;;;10.73;2.13;;;23.80;9.00;;;;;;5112494;28;20819;-72
2023/06/27 09:56:50;;;;;;;11.70;2.23;;;24.30;9.50;;;;;;5112805;28;20541;-72
2023/06/27 09:59:18;;;;;;;12.40;3.30;;;24.70;8.70;;;;;;5112578;28;20456;-72
2023/06/27 10:01:44;;;;;;;8.70;2.57;;;24.70;6.40;;;;;;5112888;28;20449;-71
2023/06/27 10:04:11;;;;;;;14.77;3.47;;;24.60;3.90;;;;;;5112459;28;20463;-72
2023/06/27 10:06:38;;;;;;;12.30;2.67;;;24.30;4.90;;;;;;5112848;28;20449;-72
2023/06/27 10:09:05;;;;;;;11.97;2.93;;;24.30;5.40;;;;;;5112588;28;20868;-71
2023/06/27 10:11:35;;;;;;;9.23;1.87;;;24.50;5.50;;;;;;5112649;28;20456;-71
2023/06/27 10:14:03;;;;;;;9.67;2.13;;;24.90;8.10;;;;;;5112092;28;20449;-72
2023/06/27 10:16:31;;;;;;;9.50;3.17;;;25.40;6.20;;;;;;5112792;28;20480;-72
2023/06/27 10:18:58;;;;;;;10.53;2.20;;;25.00;4.90;;;;;;5112432;28;20944;-71
2023/06/27 10:21:28;;;;;;;10.10;2.93;;;25.30;1.00;;;;;;5112479;28;20964;-71
2023/06/27 10:23:59;;;;;;;15.53;3.00;;;25.60;1.00;;;;;;5112573;28;20473;-72
2023/06/27 10:26:27;;;;;;;8.63;2.37;;;25.50;1.00;;;;;;5112453;28;20464;-72
2023/06/27 10:28:56;;;;;;;7.20;2.17;;;26.00;1.00;;;;;;5112613;28;20453;-72
2023/06/27 10:31:42;;;;;;;6.20;2.10;;;24.50;1.00;;;;;;5112879;28;20453;-72
2023/06/27 10:34:10;;;;;;;8.80;2.40;;;25.40;1.00;;;;;;5115980;28;20453;-72
2023/06/27 10:37:00;;;;;;;9.27;2.00;;;25.80;1.00;;;;;;5116528;28;20460;-73
2023/06/27 10:39:31;;;;;;;7.33;2.10;;;25.90;1.00;;;;;;5116487;28;20475;-72
2023/06/27 10:42:02;;;;;;;8.67;2.50;;;25.60;1.00;;;;;;5116556;28;20480;-72
2023/06/27 10:44:31;;;;;;;7.67;2.53;;;25.60;1.00;;;;;;5115755;27;20459;-73
2023/06/27 10:47:25;;;;;;;8.73;2.50;;;25.80;1.00;;;;;;5116165;28;20944;-72
2023/06/27 10:49:54;;;;;;;10.30;2.00;;;25.80;1.00;;;;;;5116177;28;20449;-72
2023/06/27 10:52:21;;;;;;;8.47;2.20;;;25.90;1.00;;;;;;5116215;27;20952;-72
2023/06/27 10:55:20;;;;;;;9.20;1.97;;;25.60;1.00;;;;;;5111128;28;20680;-72
2023/06/27 10:57:50;;;;;;;11.27;2.20;;;25.70;1.00;;;;;;5092646;28;20452;-70
2023/06/27 11:00:25;;;;;;;8.27;2.03;;;25.50;1.00;;;;;;5104464;28;20461;-70
2023/06/27 11:02:53;;;;;;;8.40;2.50;;;25.40;1.00;;;;;;5110664;28;20572;-71
2023/06/27 11:05:35;;;;;;;7.90;2.03;;;25.10;1.00;;;;;;5108999;28;20860;-71
2023/06/27 11:08:03;;;;;;;8.60;2.30;;;24.90;1.00;;;;;;5106689;28;20444;-71
2023/06/27 11:10:30;;;;;;;11.47;2.83;;;24.40;1.00;;;;;;5107467;28;20445;-71
2023/06/27 11:13:17;;;;;;;6.30;2.00;;;24.30;1.00;;;;;;5113263;28;20448;-71
2023/06/27 11:15:46;;;;;;;9.40;2.50;;;24.30;1.00;;;;;;5114819;28;20944;-71
2023/06/27 11:18:15;;;;;;;9.47;2.43;;;24.20;1.00;;;;;;5106083;28;20967;-72
2023/06/27 11:20:43;;;;;;;9.33;2.43;;;24.70;1.20;;;;;;5102939;28;20510;-71
2023/06/27 11:23:10;;;;;;;9.30;1.97;;;24.90;1.00;;;;;;5108460;28;20476;-72
2023/06/27 11:25:38;;;;;;;9.37;2.13;;;24.40;1.00;;;;;;5100030;28;20921;-71
2023/06/27 11:28:05;;;;;;;5.97;2.00;;;24.20;1.00;;;;;;5105538;28;20453;-72
2023/06/27 11:30:33;;;;;;;9.53;2.27;;;24.20;1.00;;;;;;5102765;28;20484;-71
2023/06/27 11:33:03;;;;;;;6.53;2.30;;;24.00;1.00;;;;;;5107285;28;20445;-71
2023/06/27 11:35:31;;;;;;;6.63;1.70;;;24.20;1.00;;;;;;5093949;28;20468;-71
2023/06/27 11:37:58;;;;;;;7.90;2.20;;;24.20;1.00;;;;;;5100275;28;20461;-71
2023/06/27 11:40:25;;;;;;;8.70;2.00;;;24.20;1.00;;;;;;5106421;28;20448;-72
2023/06/27 11:42:59;;;;;;;6.07;1.77;;;24.30;1.00;;;;;;5114257;27;20481;-71
2023/06/27 11:45:26;;;;;;;7.70;2.07;;;24.20;1.00;;;;;;5104214;28;20453;-71
2023/06/27 11:47:54;;;;;;;7.10;1.70;;;24.50;1.00;;;;;;5100908;28;20450;-72
2023/06/27 11:50:23;;;;;;;7.03;2.03;;;24.40;1.00;;;;;;5104986;28;20461;-71
2023/06/27 11:52:50;;;;;;;6.20;1.93;;;24.70;1.00;;;;;;5109677;28;20948;-72
2023/06/27 11:55:18;;;;;;;9.60;2.23;;;24.90;1.00;;;;;;5113990;27;20456;-71
2023/06/27 11:57:45;;;;;;;6.17;1.80;;;24.70;1.00;;;;;;5114107;28;20781;-72
2023/06/27 12:00:19;;;;;;;7.53;2.10;;;25.20;1.00;;;;;;5114448;28;20453;-72
2023/06/27 12:02:50;;;;;;;7.40;2.27;;;25.80;1.00;;;;;;5114431;28;20472;-69
2023/06/27 12:05:18;;;;;;;10.37;2.57;;;24.70;1.00;;;;;;5098082;28;20764;-69
2023/06/27 12:08:02;;;;;;;8.87;2.30;;;25.00;1.00;;;;;;5097318;28;20449;-72
2023/06/27 12:10:30;;;;;;;8.80;2.73;;;25.10;1.00;;;;;;5093038;28;20454;-73
2023/06/27 12:12:57;;;;;;;12.93;2.17;;;24.90;1.00;;;;;;5092898;28;20507;-74
2023/06/27 12:15:24;;;;;;;7.30;2.30;;;24.90;1.00;;;;;;5094917;28;20450;-73
2023/06/27 12:17:58;;;;;;;17.27;2.10;;;24.90;1.00;;;;;;5102543;28;20453;-73
2023/06/27 12:20:25;;;;;;;9.07;2.10;;;24.90;1.00;;;;;;5073316;28;20951;-73
2023/06/27 12:22:51;;;;;;;6.30;2.27;;;24.40;1.00;;;;;;5073621;28;20481;-73
2023/06/27 12:25:20;;;;;;;6.83;2.20;;;24.30;1.00;;;;;;5073226;28;20450;-73
2023/06/27 12:27:46;;;;;;;7.10;1.83;;;23.90;1.00;;;;;;5073830;28;20818;-73
2023/06/27 12:30:13;;;;;;;6.93;2.47;;;23.70;1.00;;;;;;5073570;28;20818;-73
2023/06/27 12:32:41;;;;;;;8.80;2.50;;;23.40;1.00;;;;;;5083693;28;20926;-74
2023/06/27 12:35:08;;;;;;;11.97;2.60;;;23.40;1.00;;;;;;5088850;28;20825;-73
2023/06/27 12:37:35;;;;;;;16.30;3.13;;;23.20;1.00;;;;;;5093280;28;20449;-72
2023/06/27 12:40:02;;;;;;;10.50;2.90;;;23.00;1.00;;;;;;5099892;28;20463;-71
2023/06/27 12:42:31;;;;;;;9.20;2.30;;;22.30;1.00;;;;;;5101662;28;20451;-72